Grand Falls, Minnesota
Current Conditions -  °F | °C
As of 9:12 PM on Tuesday 25 Nov 2014 (Local Time) from KVWU Reporting Station
Overcast Overcast  
Wind Chill: 18°   Ceiling: 2700
Heat Index: 18°   Visibility: 10mi
Dew Point: 14°   Wind: 0mph
Humidity: 86%   Direction: NA
Pressure: 30.02"   Gusts: NA
Location:  48.1809°N, 93.8949°W
Report Text: KVWU 260312Z AUTO 00000KT 10SM OVC027 M08/M10 A3002 RMK AO2
Loading
Personal Weather Stations






























Interactive Weather Map New forecast layout! Learn more

10-Day Weather Forecast

Advertisements
Track Severe Weather on mobile